createdAt,value
2022-09-14T00:01:25.456Z,6.72
2022-09-14T00:03:55.064Z,4.80
2022-09-14T00:06:21.992Z,10.38
2022-09-14T00:08:52.957Z,10.10
2022-09-14T00:11:21.630Z,6.53
2022-09-14T00:13:49.007Z,5.50
2022-09-14T00:16:27.256Z,6.07
2022-09-14T00:19:00.564Z,7.90
2022-09-14T00:21:27.877Z,6.15
2022-09-14T00:23:54.430Z,14.23
2022-09-14T00:26:23.263Z,15.68
2022-09-14T00:28:56.447Z,16.83
2022-09-14T00:31:24.862Z,12.07
2022-09-14T00:33:53.829Z,14.00
2022-09-14T00:36:26.200Z,11.10
2022-09-14T00:38:56.476Z,7.57
2022-09-14T00:41:25.527Z,9.63
2022-09-14T00:43:57.684Z,12.57
2022-09-14T00:46:26.260Z,16.67
2022-09-14T00:48:53.626Z,11.27
2022-09-14T00:51:21.929Z,11.88
2022-09-14T00:53:48.594Z,10.15
2022-09-14T00:56:15.673Z,4.88
2022-09-14T00:58:44.696Z,8.13
2022-09-14T01:01:11.591Z,11.18
2022-09-14T01:03:38.057Z,6.38
2022-09-14T01:06:35.437Z,10.38
2022-09-14T01:09:24.882Z,5.78
2022-09-14T01:11:57.117Z,8.65
2022-09-14T01:14:44.823Z,7.45
2022-09-14T01:17:18.058Z,7.18
2022-09-14T01:19:59.453Z,9.93
2022-09-14T01:22:42.927Z,10.23
2022-09-14T01:25:33.864Z,5.07
2022-09-14T01:28:03.652Z,7.15
2022-09-14T01:30:33.570Z,8.27
2022-09-14T01:33:13.953Z,8.57
2022-09-14T01:36:08.320Z,4.68
2022-09-14T01:38:43.586Z,6.25
2022-09-14T01:41:13.408Z,5.57
2022-09-14T01:43:57.565Z,5.55
2022-09-14T01:46:31.697Z,9.15
2022-09-14T01:49:02.343Z,10.75
2022-09-14T01:51:36.270Z,8.52
2022-09-14T01:54:26.888Z,9.48
2022-09-14T01:57:05.496Z,6.63
2022-09-14T01:59:37.458Z,6.38
2022-09-14T02:02:18.157Z,10.15
2022-09-14T02:04:54.278Z,6.78
2022-09-14T02:07:20.865Z,7.45
2022-09-14T02:09:49.018Z,6.55
2022-09-14T02:12:15.955Z,5.68
2022-09-14T02:14:43.160Z,11.45
2022-09-14T02:17:09.634Z,5.60
2022-09-14T02:19:55.288Z,5.93
2022-09-14T02:22:21.948Z,4.95
2022-09-14T02:24:49.152Z,5.50
2022-09-14T02:27:15.551Z,10.77
2022-09-14T02:29:42.109Z,4.75
2022-09-14T02:32:21.187Z,10.45
2022-09-14T02:34:53.305Z,5.55
2022-09-14T02:37:35.751Z,7.03
2022-09-14T02:40:31.299Z,9.27
2022-09-14T02:43:03.479Z,12.30
2022-09-14T02:45:50.724Z,11.17
2022-09-14T02:48:31.377Z,10.25
2022-09-14T02:51:25.296Z,8.52
2022-09-14T02:53:59.843Z,7.97
2022-09-14T02:56:28.711Z,11.07
2022-09-14T02:58:55.881Z,7.40
2022-09-14T03:01:24.319Z,12.20
2022-09-14T03:03:51.000Z,7.90
2022-09-14T03:06:17.735Z,6.93
2022-09-14T03:08:44.504Z,8.32
2022-09-14T03:11:11.173Z,10.65
2022-09-14T03:13:37.925Z,5.45
2022-09-14T03:16:09.387Z,7.95
2022-09-14T03:18:36.973Z,5.28
2022-09-14T03:21:08.967Z,6.70
2022-09-14T03:23:40.310Z,7.95
2022-09-14T03:26:12.224Z,11.10
2022-09-14T03:28:39.210Z,7.38
2022-09-14T03:31:07.929Z,7.30
2022-09-14T03:33:35.199Z,9.77
2022-09-14T03:36:09.230Z,7.00
2022-09-14T03:38:35.650Z,7.88
2022-09-14T03:41:07.120Z,8.20
2022-09-14T03:43:33.881Z,8.10
2022-09-14T03:46:08.591Z,12.30
2022-09-14T03:48:35.604Z,5.95
2022-09-14T03:51:03.894Z,9.73
2022-09-14T03:53:30.821Z,9.65
2022-09-14T03:55:57.446Z,6.85
2022-09-14T03:58:24.412Z,7.95
2022-09-14T04:00:51.444Z,9.60
2022-09-14T04:03:18.559Z,11.35
2022-09-14T04:05:55.183Z,5.40
2022-09-14T04:08:21.974Z,6.63
2022-09-14T04:10:48.406Z,7.80
2022-09-14T04:13:14.829Z,8.93
2022-09-14T04:15:41.499Z,5.47
2022-09-14T04:18:07.937Z,6.35
2022-09-14T04:20:35.215Z,7.13
2022-09-14T04:23:01.622Z,8.48
2022-09-14T04:25:28.045Z,7.90
2022-09-14T04:28:16.621Z,9.57
2022-09-14T04:30:41.166Z,6.80
2022-09-14T04:33:07.630Z,8.27
2022-09-14T04:35:34.097Z,9.55
2022-09-14T04:38:00.519Z,6.68
2022-09-14T04:40:28.877Z,8.43
2022-09-14T04:42:55.396Z,8.77
2022-09-14T04:45:21.807Z,8.85
2022-09-14T04:47:48.389Z,7.78
2022-09-14T04:50:15.267Z,11.65
2022-09-14T04:52:41.765Z,9.68
2022-09-14T04:55:08.522Z,7.47
2022-09-14T04:57:34.944Z,10.27
2022-09-14T05:00:01.581Z,8.10
2022-09-14T05:02:30.932Z,11.15
2022-09-14T05:04:58.870Z,12.63
2022-09-14T05:07:25.278Z,6.85
2022-09-14T05:09:51.761Z,13.05
2022-09-14T05:12:18.190Z,11.00
2022-09-14T05:14:44.603Z,13.15
2022-09-14T05:17:11.093Z,11.38
2022-09-14T05:19:37.541Z,10.88
2022-09-14T05:22:04.049Z,12.63
2022-09-14T05:24:31.012Z,14.85
2022-09-14T05:27:01.009Z,11.55
2022-09-14T05:29:29.577Z,13.27
2022-09-14T05:31:56.074Z,14.20
2022-09-14T05:34:22.532Z,9.13
2022-09-14T05:36:49.039Z,12.90
2022-09-14T05:39:18.697Z,10.48
2022-09-14T05:41:50.074Z,12.77
2022-09-14T05:44:16.581Z,11.45
2022-09-14T05:46:43.050Z,11.10
2022-09-14T05:49:09.556Z,11.52
2022-09-14T05:51:35.963Z,9.55
2022-09-14T05:54:03.087Z,11.38
2022-09-14T05:56:31.754Z,11.38
2022-09-14T05:58:59.351Z,10.20
2022-09-14T06:01:31.746Z,9.75
2022-09-14T06:04:02.135Z,6.95
2022-09-14T06:06:30.281Z,7.53
2022-09-14T06:08:57.188Z,10.90
2022-09-14T06:11:29.194Z,8.00
2022-09-14T06:13:56.278Z,7.53
2022-09-14T06:16:24.670Z,16.00
2022-09-14T06:18:51.207Z,11.38
2022-09-14T06:21:19.840Z,10.20
2022-09-14T06:23:47.609Z,11.27
2022-09-14T06:26:14.427Z,11.57
2022-09-14T06:28:41.206Z,10.68
2022-09-14T06:31:09.973Z,9.90
2022-09-14T06:33:37.122Z,9.40
2022-09-14T06:36:12.664Z,9.27
2022-09-14T06:38:40.347Z,16.77
2022-09-14T06:41:09.202Z,13.77
2022-09-14T06:43:41.357Z,9.07
2022-09-14T06:46:14.660Z,12.27
2022-09-14T06:48:47.368Z,17.55
2022-09-14T06:51:23.423Z,9.75
2022-09-14T06:53:51.182Z,7.90
2022-09-14T06:56:18.832Z,12.63
2022-09-14T06:58:45.690Z,12.18
2022-09-14T07:01:15.737Z,13.05
2022-09-14T07:03:43.997Z,10.88
2022-09-14T07:06:15.980Z,10.85
2022-09-14T07:08:43.513Z,9.90
2022-09-14T07:11:12.260Z,9.05
2022-09-14T07:13:38.831Z,10.18
2022-09-14T07:16:06.053Z,12.52
2022-09-14T07:18:32.835Z,6.68
2022-09-14T07:21:16.887Z,9.18
2022-09-14T07:23:45.712Z,11.70
2022-09-14T07:26:20.983Z,16.70
2022-09-14T07:28:53.093Z,9.57
2022-09-14T07:31:24.679Z,11.65
2022-09-14T07:33:56.652Z,12.05
2022-09-14T07:36:24.964Z,9.50
2022-09-14T07:38:53.358Z,8.75
2022-09-14T07:41:25.786Z,12.25
2022-09-14T07:43:54.045Z,9.90
2022-09-14T07:46:21.458Z,13.13
2022-09-14T07:48:49.174Z,9.70
2022-09-14T07:51:15.998Z,13.88
2022-09-14T07:53:43.613Z,7.57
2022-09-14T07:56:11.859Z,7.00
2022-09-14T07:58:38.922Z,10.75
2022-09-14T08:01:09.046Z,8.38
2022-09-14T08:03:40.169Z,10.85
2022-09-14T08:06:12.784Z,10.75
2022-09-14T08:08:41.818Z,12.77
2022-09-14T08:11:17.495Z,12.43
2022-09-14T08:13:46.791Z,13.07
2022-09-14T08:16:13.660Z,8.35
2022-09-14T08:18:40.576Z,10.13
2022-09-14T08:21:09.939Z,8.98
2022-09-14T08:23:37.256Z,7.85
2022-09-14T08:26:16.784Z,14.02
2022-09-14T08:28:44.263Z,6.90
2022-09-14T08:31:13.985Z,13.20
2022-09-14T08:33:44.189Z,11.48
2022-09-14T08:36:13.426Z,9.30
2022-09-14T08:38:39.987Z,9.95
2022-09-14T08:41:28.920Z,7.00
2022-09-14T08:44:01.728Z,10.82
2022-09-14T08:46:35.402Z,12.80
2022-09-14T08:49:05.439Z,11.45
2022-09-14T08:51:31.942Z,12.05
2022-09-14T08:53:59.505Z,12.10
2022-09-14T08:56:32.109Z,10.57
2022-09-14T08:59:27.303Z,12.13
2022-09-14T09:02:05.250Z,9.43
2022-09-14T09:05:10.623Z,14.63
2022-09-14T09:07:53.655Z,7.80
2022-09-14T09:12:55.050Z,15.77
2022-09-14T09:15:27.558Z,12.98
2022-09-14T09:17:59.677Z,7.22
2022-09-14T09:20:33.540Z,8.88
2022-09-14T09:23:12.288Z,11.23
2022-09-14T09:26:03.471Z,4.90
2022-09-14T09:28:31.241Z,7.80
2022-09-14T09:31:04.891Z,6.93
2022-09-14T09:33:32.342Z,10.00
2022-09-14T09:35:59.486Z,9.48
2022-09-14T09:38:29.245Z,9.57
2022-09-14T09:41:05.870Z,6.00
2022-09-14T09:43:49.383Z,9.93
2022-09-14T09:46:17.732Z,6.88
2022-09-14T09:48:45.834Z,7.43
2022-09-14T09:51:14.075Z,7.50
2022-09-14T09:53:53.456Z,8.30
2022-09-14T09:56:31.870Z,7.15
2022-09-14T09:58:58.479Z,6.40
2022-09-14T10:01:35.760Z,6.50
2022-09-14T10:04:20.068Z,11.93
2022-09-14T10:06:49.825Z,4.32
2022-09-14T10:09:23.443Z,14.25
2022-09-14T10:14:34.591Z,8.18
2022-09-14T10:17:19.861Z,10.73
2022-09-14T10:19:53.770Z,32.20
2022-09-14T10:22:28.061Z,14.25
2022-09-14T10:24:58.441Z,6.05
2022-09-14T10:27:38.213Z,18.38
2022-09-14T10:30:07.299Z,10.25
2022-09-14T10:32:35.035Z,7.22
2022-09-14T10:35:01.606Z,9.65
2022-09-14T10:37:32.073Z,11.93
2022-09-14T10:40:16.845Z,15.95
2022-09-14T10:43:02.352Z,15.27
2022-09-14T10:45:31.413Z,7.47
2022-09-14T10:48:40.986Z,7.43
2022-09-14T10:51:27.160Z,10.10
2022-09-14T10:54:44.219Z,12.70
2022-09-14T10:57:37.487Z,9.30
2022-09-14T11:00:12.399Z,7.38
2022-09-14T11:03:15.906Z,12.38
2022-09-14T11:06:17.995Z,4.38
2022-09-14T11:08:49.433Z,6.75
2022-09-14T11:11:22.880Z,9.23
2022-09-14T11:14:18.862Z,7.45
2022-09-14T11:17:06.918Z,9.32
2022-09-14T11:19:48.586Z,8.93
2022-09-14T11:22:24.233Z,6.38
2022-09-14T11:25:03.473Z,3.25
2022-09-14T11:27:39.909Z,8.35
2022-09-14T11:30:16.008Z,9.02
2022-09-14T11:32:52.674Z,6.53
2022-09-14T11:35:37.729Z,9.32
2022-09-14T11:38:28.154Z,6.70
2022-09-14T11:41:21.516Z,8.13
2022-09-14T11:43:57.983Z,5.70
2022-09-14T11:46:42.082Z,7.13
2022-09-14T11:49:26.061Z,5.90
2022-09-14T11:51:59.076Z,4.20
2022-09-14T11:54:25.800Z,5.72
2022-09-14T11:57:03.672Z,6.80
2022-09-14T11:59:39.474Z,7.85
2022-09-14T12:02:24.010Z,2.67
2022-09-14T12:05:05.755Z,4.43
2022-09-14T12:07:47.122Z,8.60
2022-09-14T12:10:13.522Z,5.80
2022-09-14T12:12:45.046Z,3.50
2022-09-14T12:15:23.098Z,5.47
2022-09-14T12:17:55.114Z,5.07
2022-09-14T12:20:33.171Z,7.82
2022-09-14T12:23:34.499Z,7.78
2022-09-14T12:26:05.881Z,4.10
2022-09-14T12:28:35.249Z,5.30
2022-09-14T12:31:04.734Z,5.38
2022-09-14T12:33:31.269Z,5.03
2022-09-14T12:35:57.644Z,5.60
2022-09-14T12:38:32.905Z,2.83
2022-09-14T12:41:08.314Z,6.25
2022-09-14T12:43:37.836Z,5.63
2022-09-14T12:46:22.619Z,5.88
2022-09-14T12:48:49.332Z,5.18
2022-09-14T12:51:34.941Z,9.07
2022-09-14T12:54:22.753Z,6.50
2022-09-14T12:57:14.054Z,5.70
2022-09-14T12:59:55.225Z,7.07
2022-09-14T13:02:44.450Z,7.63
2022-09-14T13:05:15.800Z,5.40
2022-09-14T13:07:42.856Z,4.45
2022-09-14T13:10:25.153Z,6.63
2022-09-14T13:12:52.361Z,10.15
2022-09-14T13:15:37.988Z,6.70
2022-09-14T13:18:24.701Z,5.63
2022-09-14T13:20:56.690Z,5.57
2022-09-14T13:23:28.307Z,11.33
2022-09-14T13:25:55.067Z,6.35
2022-09-14T13:28:24.489Z,5.78
2022-09-14T13:30:56.676Z,10.68
2022-09-14T13:33:23.592Z,5.63
2022-09-14T13:35:51.739Z,6.40
2022-09-14T13:38:22.869Z,4.38
2022-09-14T13:40:52.497Z,13.27
2022-09-14T13:43:21.044Z,6.20
2022-09-14T13:45:49.623Z,8.93
2022-09-14T13:48:18.562Z,4.47
2022-09-14T13:50:48.036Z,6.30
2022-09-14T13:53:45.554Z,7.63
2022-09-14T13:56:22.944Z,6.30
2022-09-14T13:59:15.176Z,5.70
2022-09-14T14:01:49.766Z,5.50
2022-09-14T14:04:38.479Z,3.05
2022-09-14T14:07:26.062Z,5.43
2022-09-14T14:09:55.291Z,4.85
2022-09-14T14:12:27.688Z,4.15
2022-09-14T14:15:12.242Z,4.70
2022-09-14T14:17:40.653Z,3.95
2022-09-14T14:20:26.123Z,5.30
2022-09-14T14:23:20.039Z,2.17
2022-09-14T14:25:52.078Z,6.20
2022-09-14T14:28:23.644Z,1.23
2022-09-14T14:30:51.017Z,5.60
2022-09-14T14:33:19.207Z,5.35
2022-09-14T14:35:52.714Z,3.60
2022-09-14T14:38:19.358Z,3.08
2022-09-14T14:40:46.715Z,5.55
2022-09-14T14:43:24.892Z,3.45
2022-09-14T14:45:55.349Z,4.32
2022-09-14T14:48:21.803Z,4.45
2022-09-14T14:50:48.458Z,2.58
2022-09-14T14:53:15.535Z,6.88
2022-09-14T14:55:42.226Z,5.95
2022-09-14T14:58:21.565Z,5.38
2022-09-14T15:00:48.186Z,6.55
2022-09-14T15:03:15.565Z,6.18
2022-09-14T15:05:46.916Z,6.10
2022-09-14T15:08:15.629Z,6.65
2022-09-14T15:10:42.447Z,10.40
2022-09-14T15:13:10.643Z,4.47
2022-09-14T15:15:39.014Z,9.07
2022-09-14T15:18:05.588Z,6.20
2022-09-14T15:20:31.999Z,3.47
2022-09-14T15:22:58.424Z,4.57
2022-09-14T15:25:24.826Z,2.22
2022-09-14T15:27:51.330Z,5.68
2022-09-14T15:30:17.843Z,4.60
2022-09-14T15:32:44.701Z,18.95
2022-09-14T15:35:13.295Z,65.45
2022-09-14T15:37:40.590Z,52.42
2022-09-14T15:40:07.586Z,27.20
2022-09-14T15:42:34.128Z,18.45
2022-09-14T15:45:00.602Z,8.90
2022-09-14T15:47:27.048Z,6.85
2022-09-14T15:49:53.521Z,5.88
2022-09-14T15:52:20.198Z,6.18
2022-09-14T15:54:46.874Z,6.85
2022-09-14T15:57:13.508Z,5.10
2022-09-14T15:59:40.183Z,7.72
2022-09-14T16:02:07.411Z,8.27
2022-09-14T16:04:37.965Z,5.65
2022-09-14T16:07:09.550Z,5.85
2022-09-14T16:09:38.114Z,8.07
2022-09-14T16:12:04.821Z,7.50
2022-09-14T16:14:31.494Z,8.50
2022-09-14T16:17:00.334Z,7.55
2022-09-14T16:19:26.881Z,4.70
2022-09-14T16:21:53.913Z,7.40
2022-09-14T16:24:21.966Z,6.30
2022-09-14T16:26:48.531Z,5.30
2022-09-14T16:29:17.183Z,9.20
2022-09-14T16:31:45.672Z,6.72
2022-09-14T16:34:26.804Z,10.85
2022-09-14T16:36:53.887Z,7.97
2022-09-14T16:39:23.320Z,4.35
2022-09-14T16:41:50.452Z,5.28
2022-09-14T16:44:22.905Z,5.40
2022-09-14T16:46:49.475Z,4.32
2022-09-14T16:49:17.184Z,8.18
2022-09-14T16:51:43.773Z,8.60
2022-09-14T16:54:15.665Z,7.30
2022-09-14T16:56:42.224Z,14.20
2022-09-14T16:59:09.815Z,7.45
2022-09-14T17:01:40.024Z,12.23
2022-09-14T17:04:13.279Z,6.18
2022-09-14T17:06:41.946Z,4.97
2022-09-14T17:09:20.812Z,4.07
2022-09-14T17:11:48.522Z,4.90
2022-09-14T17:14:17.305Z,8.38
2022-09-14T17:16:43.998Z,4.43
2022-09-14T17:19:11.357Z,3.90
2022-09-14T17:21:40.621Z,6.07
2022-09-14T17:24:08.152Z,5.82
2022-09-14T17:26:35.317Z,3.00
2022-09-14T17:29:03.096Z,3.28
2022-09-14T17:31:36.147Z,9.57
2022-09-14T17:34:04.752Z,5.00
2022-09-14T17:36:31.215Z,3.88
2022-09-14T17:38:59.497Z,6.30
2022-09-14T17:41:30.386Z,4.25
2022-09-14T17:44:02.087Z,7.20
2022-09-14T17:46:29.675Z,6.30
2022-09-14T17:49:00.567Z,5.22
2022-09-14T17:51:28.712Z,4.43
2022-09-14T17:53:57.234Z,6.22
2022-09-14T17:56:27.338Z,7.13
2022-09-14T17:59:04.166Z,9.43
2022-09-14T18:01:31.621Z,9.30
2022-09-14T18:04:02.467Z,6.88
2022-09-14T18:06:31.439Z,4.85
2022-09-14T18:09:01.749Z,4.95
2022-09-14T18:11:29.122Z,5.68
2022-09-14T18:13:56.117Z,4.65
2022-09-14T18:16:24.232Z,6.90
2022-09-14T18:18:51.536Z,5.28
2022-09-14T18:21:18.696Z,5.72
2022-09-14T18:23:50.026Z,9.13
2022-09-14T18:26:16.858Z,8.27
2022-09-14T18:28:44.421Z,4.65
2022-09-14T18:31:13.846Z,3.53
2022-09-14T18:33:46.052Z,4.60
2022-09-14T18:36:15.095Z,4.60
2022-09-14T18:38:42.415Z,4.90
2022-09-14T18:41:10.689Z,7.25
2022-09-14T18:43:38.065Z,3.85
2022-09-14T18:46:08.000Z,4.10
2022-09-14T18:48:35.244Z,3.05
2022-09-14T18:51:04.537Z,2.80
2022-09-14T18:53:31.772Z,4.35
2022-09-14T18:56:02.913Z,4.03
2022-09-14T18:58:33.164Z,2.47
2022-09-14T19:00:59.738Z,3.30
2022-09-14T19:03:26.179Z,2.30
2022-09-14T19:05:52.670Z,3.08
2022-09-14T19:08:19.087Z,4.25
2022-09-14T19:10:45.729Z,5.63
2022-09-14T19:13:12.170Z,3.08
2022-09-14T19:15:40.950Z,2.30
2022-09-14T19:18:09.041Z,3.08
2022-09-14T19:21:02.481Z,3.25
2022-09-14T19:23:26.133Z,2.90
2022-09-14T19:25:52.637Z,4.60
2022-09-14T19:28:19.321Z,4.18
2022-09-14T19:30:46.437Z,5.57
2022-09-14T19:33:13.049Z,5.20
2022-09-14T19:35:39.600Z,3.47
2022-09-14T19:38:06.021Z,5.18
2022-09-14T19:40:32.574Z,6.55
2022-09-14T19:42:59.085Z,5.55
2022-09-14T19:45:25.561Z,8.23
2022-09-14T19:47:51.979Z,5.38
2022-09-14T19:50:18.385Z,4.90
2022-09-14T19:52:44.889Z,6.50
2022-09-14T19:55:11.319Z,4.10
2022-09-14T19:57:38.155Z,3.70
2022-09-14T20:00:07.455Z,2.72
2022-09-14T20:02:34.033Z,2.45
2022-09-14T20:05:00.610Z,2.08
2022-09-14T20:07:27.012Z,3.53
2022-09-14T20:09:53.461Z,2.85
2022-09-14T20:12:19.960Z,3.20
2022-09-14T20:14:46.357Z,3.10
2022-09-14T20:17:12.777Z,4.68
2022-09-14T20:19:39.723Z,4.50
2022-09-14T20:22:06.308Z,4.63
2022-09-14T20:24:32.845Z,4.43
2022-09-14T20:27:00.752Z,3.55
2022-09-14T20:29:30.481Z,5.10
2022-09-14T20:31:58.294Z,3.53
2022-09-14T20:34:25.051Z,4.72
2022-09-14T20:36:52.636Z,7.03
2022-09-14T20:39:20.814Z,7.68
2022-09-14T20:41:47.294Z,4.05
2022-09-14T20:44:14.426Z,3.90
2022-09-14T20:46:43.126Z,3.40
2022-09-14T20:49:12.171Z,1.95
2022-09-14T20:51:39.346Z,7.10
2022-09-14T20:54:06.945Z,2.28
2022-09-14T20:56:34.990Z,3.47
2022-09-14T20:59:06.229Z,5.82
2022-09-14T21:01:36.051Z,4.15
2022-09-14T21:04:05.331Z,1.30
2022-09-14T21:06:31.970Z,1.85
2022-09-14T21:08:59.898Z,2.25
2022-09-14T21:11:27.304Z,2.00
2022-09-14T21:13:55.484Z,1.33
2022-09-14T21:16:26.189Z,2.08
2022-09-14T21:18:56.502Z,1.48
2022-09-14T21:21:23.399Z,4.20
2022-09-14T21:23:50.692Z,4.10
2022-09-14T21:26:18.758Z,1.58
2022-09-14T21:28:45.245Z,6.60
2022-09-14T21:31:21.541Z,5.43
2022-09-14T21:33:51.295Z,2.97
2022-09-14T21:36:19.429Z,5.80
2022-09-14T21:38:50.756Z,4.15
2022-09-14T21:41:18.859Z,3.88
2022-09-14T21:43:45.596Z,3.55
2022-09-14T21:46:12.132Z,4.28
2022-09-14T21:48:38.902Z,3.53
2022-09-14T21:51:06.953Z,2.90
2022-09-14T21:53:34.451Z,3.53
2022-09-14T21:56:05.591Z,2.95
2022-09-14T21:58:32.807Z,4.10
2022-09-14T22:01:02.109Z,1.52
2022-09-14T22:03:29.367Z,3.17
2022-09-14T22:06:07.307Z,8.25
2022-09-14T22:08:35.193Z,3.45
2022-09-14T22:11:06.526Z,2.92
2022-09-14T22:13:33.767Z,2.15
2022-09-14T22:16:08.033Z,8.57
2022-09-14T22:18:36.794Z,4.60
2022-09-14T22:21:04.739Z,5.35
2022-09-14T22:23:32.794Z,2.10
2022-09-14T22:25:59.710Z,3.78
2022-09-14T22:28:26.156Z,4.25
2022-09-14T22:30:55.094Z,3.40
2022-09-14T22:33:23.193Z,2.35
2022-09-14T22:35:57.735Z,3.15
2022-09-14T22:38:26.098Z,3.33
2022-09-14T22:40:59.726Z,1.33
2022-09-14T22:43:27.210Z,3.30
2022-09-14T22:45:54.552Z,6.13
2022-09-14T22:48:22.162Z,5.38
2022-09-14T22:50:50.329Z,3.40
2022-09-14T22:53:17.621Z,10.77
2022-09-14T22:55:44.849Z,2.67
2022-09-14T22:58:14.092Z,3.15
2022-09-14T23:00:41.681Z,5.88
2022-09-14T23:03:09.458Z,3.88
2022-09-14T23:05:37.593Z,2.63
2022-09-14T23:08:05.873Z,5.80
2022-09-14T23:10:32.349Z,5.00
2022-09-14T23:12:59.152Z,3.58
2022-09-14T23:15:25.581Z,3.20
2022-09-14T23:17:52.305Z,3.35
2022-09-14T23:20:18.874Z,2.83
2022-09-14T23:22:45.293Z,3.10
2022-09-14T23:25:11.727Z,4.40
2022-09-14T23:27:38.344Z,4.03
2022-09-14T23:30:05.161Z,5.20
2022-09-14T23:32:32.218Z,6.10
2022-09-14T23:34:58.663Z,6.00
2022-09-14T23:37:25.178Z,5.07
2022-09-14T23:39:51.713Z,3.95
2022-09-14T23:42:18.171Z,5.38
2022-09-14T23:44:44.684Z,4.90
2022-09-14T23:47:11.085Z,2.63
2022-09-14T23:49:37.485Z,4.55
2022-09-14T23:52:04.026Z,5.60
2022-09-14T23:54:31.966Z,5.97
2022-09-14T23:56:58.419Z,4.18
2022-09-14T23:59:24.835Z,3.20
